Nearby METAR Reports

 

K6I2 - Springfield, Kentucky, USA
Distance from station: SSE 22mi, 36km
Updated: 07/23/2021 11:55pm
Clear
Clear
 Wind from calm
Wind: Calm
Temperature: 70°F , 21°C
Dew Point: 66°F , 19°C
Humidity: 88%
Barometer: 30.12 inHg , 1020 hPa
Clouds: Clear
Visibility: 10 miles , 16 km
2021/07/24 03:55 K6I2 240355Z AUTO 00000KT 10SM CLR 21/19 A3012 RMK AO2
KLOU - Louisville/Bowmn, Kentucky, USA
Distance from station: NW 25mi, 40km
Updated: 07/23/2021 11:53pm
Clear
Clear
 Wind from calm
Wind: Calm
Temperature: 73°F , 23°C
Dew Point: 63°F , 17°C
Humidity: 69%
Barometer: 30.10 inHg , 1019.3 hPa
Clouds: Clear
Visibility: 10 miles , 16 km
2021/07/24 03:53 KLOU 240353Z 00000KT 10SM CLR 23/17 A3010 RMK AO2 SLP186 T02280172
 
KSDF - Louisville, Kentucky, USA
Distance from station: NW 25mi, 41km
Updated: 07/23/2021 11:56pm
Clear
Clear
 Wind from SE
Wind: SE 3 mph , 6 km/h
Temperature: 79°F , 26°C
Dew Point: 63°F , 17°C
Humidity: 58%
Barometer: 30.09 inHg , 1019 hPa
Clouds: Clear
Visibility: 10 miles , 16 km
2021/07/24 03:56 KSDF 240356Z 14003KT 10SM CLR 26/17 A3009 RMK AO2 SLP183 T02560172
KEKX - Elizabeth, Kentucky, USA
Distance from station: WSW 30mi, 48km
Updated: 07/23/2021 11:55pm
Clear
Clear
 Wind from calm
Wind: Calm
Temperature: 68°F , 20°C
Dew Point: 66°F , 19°C
Humidity: 94%
Barometer: 30.11 inHg , 1019.6 hPa
Clouds: Clear
Visibility: 7 miles , 11 km
2021/07/24 03:55 KEKX 240355Z AUTO 00000KT 7SM CLR 20/19 A3011 RMK AO2 T01960190
 
KFFT - Frankfort, Kentucky, USA
Distance from station: NE 32mi, 51km
Updated: 07/23/2021 11:53pm
Clear
Clear
 Wind from calm
Wind: Calm
Temperature: 70°F , 21°C
Dew Point: 64°F , 18°C
Humidity: 83%
Barometer: 30.11 inHg , 1019.6 hPa
Clouds: Clear
Visibility: 10 miles , 16 km
2021/07/24 03:53 KFFT 240353Z AUTO 00000KT 10SM CLR 21/18 A3011 RMK AO2 SLP188 T02060183
KFTK - Fort Knox/Godman, Kentucky, USA
Distance from station: W 32mi, 51km
Updated: 07/23/2021 11:56pm
Clear
Clear
 Wind from calm
Wind: Calm
Temperature: 66°F , 19°C
Dew Point: 66°F , 19°C
Humidity: 100%
Barometer: 30.09 inHg , 1019 hPa
Clouds: Clear
Visibility: 10 miles , 16 km
2021/07/24 03:56 KFTK 240356Z AUTO 00000KT 10SM CLR 19/19 A3009 RMK AO2 SLP187 T01890187
 
KDVK - Danville, Kentucky, USA
Distance from station: SE 42mi, 67km
Updated: 07/23/2021 11:55pm
Clear
Clear
 Wind from calm
Wind: Calm
Temperature: 64°F , 18°C
Dew Point: 63°F , 17°C
Humidity: 94%
Barometer: 30.14 inHg , 1020.7 hPa
Clouds: Clear
Visibility: 10 miles , 16 km
2021/07/24 03:55 KDVK 240355Z AUTO 00000KT 10SM CLR 18/17 A3014 RMK AO2
KLEX - Lexington, Kentucky, USA
Distance from station: E 43mi, 70km
Updated: 07/23/2021 11:54pm
Clear
Clear
 Wind from calm
Wind: Calm
Temperature: 66°F , 19°C
Dew Point: 61°F , 16°C
Humidity: 83%
Barometer: 30.12 inHg , 1020 hPa
Clouds: Clear
Visibility: 10 miles , 16 km
2021/07/24 03:54 KLEX 240354Z AUTO 00000KT 10SM CLR 19/16 A3012 RMK AO2 SLP190 T01940161